Time,TemperatureF,DewpointF,PressureIn,WindDirection,WindDirectionDegrees,WindSpeedMPH,WindSpeedGustMPH,Humidity,HourlyPrecipIn,Conditions,Clouds,dailyrainin,SoftwareType,DateUTC
2013-03-04 00:06:00,29.1,28.9,29.65,NW,315,4.7,-999.0,99,-99.99,,,0.00,Acu-Link.com,2013-03-04 05:06:00,
2013-03-04 00:21:00,29.5,29.2,29.66,WSW,247,2.7,-999.0,99,-99.99,,,0.00,Acu-Link.com,2013-03-04 05:21:00,
2013-03-04 00:36:00,29.5,29.2,29.66,West,270,4.7,-999.0,99,-99.99,,,0.00,Acu-Link.com,2013-03-04 05:36:00,
2013-03-04 00:52:00,29.7,29.4,29.66,NW,315,5.1,-999.0,99,-99.99,,,0.00,Acu-Link.com,2013-03-04 05:52:00,
2013-03-04 01:07:00,29.7,29.4,29.66,NNW,337,5.8,-999.0,99,-99.99,,,0.00,Acu-Link.com,2013-03-04 06:07:00,
2013-03-04 01:22:00,29.8,29.6,29.66,West,270,3.1,-999.0,99,-99.99,,,0.00,Acu-Link.com,2013-03-04 06:22:00,
2013-03-04 01:37:00,29.8,29.6,29.66,WNW,292,14.1,-999.0,99,-99.99,,,0.00,Acu-Link.com,2013-03-04 06:37:00,
2013-03-04 01:52:00,29.7,29.4,29.66,West,270,5.1,-999.0,99,-99.99,,,0.00,Acu-Link.com,2013-03-04 06:52:00,
2013-03-04 02:08:00,29.7,29.4,29.66,West,270,6.7,-999.0,99,-99.99,,,0.00,Acu-Link.com,2013-03-04 07:08:00,
2013-03-04 02:23:00,29.5,29.2,29.67,WNW,292,9.4,-999.0,99,-99.99,,,0.00,Acu-Link.com,2013-03-04 07:23:00,
2013-03-04 02:38:00,29.3,29.1,29.67,West,270,7.8,-999.0,99,-99.99,,,0.00,Acu-Link.com,2013-03-04 07:38:00,
2013-03-04 02:53:00,29.1,28.9,29.67,West,270,7.8,-999.0,99,-99.99,,,0.00,Acu-Link.com,2013-03-04 07:53:00,
2013-03-04 03:08:00,28.9,28.7,29.66,West,270,8.9,-999.0,99,-99.99,,,0.00,Acu-Link.com,2013-03-04 08:08:00,
2013-03-04 03:24:00,28.8,28.5,29.67,WNW,292,3.8,-999.0,99,-99.99,,,0.00,Acu-Link.com,2013-03-04 08:24:00,
2013-03-04 03:39:00,28.8,28.5,29.67,WNW,292,6.7,-999.0,99,-99.99,,,0.00,Acu-Link.com,2013-03-04 08:39:00,
2013-03-04 03:54:00,28.8,28.5,29.68,WNW,292,7.8,-999.0,99,-99.99,,,0.00,Acu-Link.com,2013-03-04 08:54:00,
2013-03-04 04:20:00,28.6,28.3,29.68,North,0,3.1,-999.0,99,-99.99,,,0.00,Acu-Link.com,2013-03-04 09:20:00,
2013-03-04 04:35:00,28.6,28.3,29.67,NNW,337,3.8,-999.0,99,-99.99,,,0.00,Acu-Link.com,2013-03-04 09:35:00,
2013-03-04 04:50:00,28.4,28.2,29.68,NNE,22,4.3,-999.0,99,-99.99,,,0.00,Acu-Link.com,2013-03-04 09:50:00,
2013-03-04 05:05:00,28.4,28.2,29.69,NW,315,6.3,-999.0,99,-99.99,,,0.00,Acu-Link.com,2013-03-04 10:05:00,
2013-03-04 05:20:00,28.4,28.2,29.69,NNW,337,5.1,-999.0,99,-99.99,,,0.00,Acu-Link.com,2013-03-04 10:20:00,
2013-03-04 05:36:00,28.2,28.0,29.69,WNW,292,7.4,-999.0,99,-99.99,,,0.00,Acu-Link.com,2013-03-04 10:36:00,
2013-03-04 05:51:00,28.2,28.0,29.69,North,0,7.4,-999.0,99,-99.99,,,0.00,Acu-Link.com,2013-03-04 10:51:00,
2013-03-04 06:06:00,28.2,28.0,29.70,NW,315,8.9,-999.0,99,-99.99,,,0.00,Acu-Link.com,2013-03-04 11:06:00,
2013-03-04 06:21:00,28.0,27.8,29.69,WNW,292,7.8,-999.0,99,-99.99,,,0.00,Acu-Link.com,2013-03-04 11:21:00,
2013-03-04 06:36:00,27.7,27.4,29.69,NNW,337,8.3,-999.0,99,-99.99,,,0.00,Acu-Link.com,2013-03-04 11:36:00,
2013-03-04 06:52:00,27.9,27.6,29.69,SW,225,9.4,-999.0,99,-99.99,,,0.00,Acu-Link.com,2013-03-04 11:52:00,
2013-03-04 07:07:00,27.9,27.6,29.69,NE,45,5.1,-999.0,99,-99.99,,,0.00,Acu-Link.com,2013-03-04 12:07:00,
2013-03-04 07:22:00,28.8,28.5,29.69,WNW,292,4.3,-999.0,99,-99.99,,,0.00,Acu-Link.com,2013-03-04 12:22:00,
2013-03-04 07:37:00,30.4,30.1,29.70,WSW,247,4.3,-999.0,99,-99.99,,,0.00,Acu-Link.com,2013-03-04 12:37:00,
2013-03-04 07:52:00,31.5,31.0,29.70,West,270,6.7,-999.0,98,-99.99,,,0.00,Acu-Link.com,2013-03-04 12:52:00,
2013-03-04 08:08:00,31.8,31.3,29.70,North,0,6.3,-999.0,98,-99.99,,,0.00,Acu-Link.com,2013-03-04 13:08:00,
2013-03-04 08:23:00,32.0,31.5,29.70,North,0,4.7,-999.0,98,-99.99,,,0.00,Acu-Link.com,2013-03-04 13:23:00,
2013-03-04 08:38:00,32.5,32.0,29.70,WNW,292,7.4,-999.0,98,-99.99,,,0.00,Acu-Link.com,2013-03-04 13:38:00,
2013-03-04 08:53:00,34.2,33.9,29.70,West,270,5.8,-999.0,99,-99.99,,,0.00,Acu-Link.com,2013-03-04 13:53:00,
2013-03-04 09:08:00,34.2,33.9,29.70,NW,315,7.4,-999.0,99,-99.99,,,0.00,Acu-Link.com,2013-03-04 14:08:00,
2013-03-04 09:24:00,34.5,34.3,29.70,WSW,247,7.4,-999.0,99,-99.99,,,0.00,Acu-Link.com,2013-03-04 14:24:00,
2013-03-04 09:39:00,36.0,35.7,29.69,West,270,4.7,-999.0,99,-99.99,,,0.00,Acu-Link.com,2013-03-04 14:39:00,
2013-03-04 09:54:00,36.7,36.4,29.70,SW,225,8.9,-999.0,99,-99.99,,,0.00,Acu-Link.com,2013-03-04 14:54:00,
2013-03-04 10:09:00,37.0,36.8,29.69,NNE,22,10.3,-999.0,99,-99.99,,,0.00,Acu-Link.com,2013-03-04 15:09:00,
2013-03-04 10:24:00,37.9,37.7,29.69,West,270,8.3,-999.0,99,-99.99,,,0.00,Acu-Link.com,2013-03-04 15:24:00,
2013-03-04 10:40:00,38.7,38.4,29.69,North,0,3.8,-999.0,99,-99.99,,,0.00,Acu-Link.com,2013-03-04 15:40:00,
2013-03-04 10:55:00,39.6,39.3,29.68,NNW,337,6.3,-999.0,99,-99.99,,,0.00,Acu-Link.com,2013-03-04 15:55:00,
2013-03-04 11:10:00,39.9,39.7,29.67,NE,45,11.0,-999.0,99,-99.99,,,0.00,Acu-Link.com,2013-03-04 16:10:00,
2013-03-04 11:25:00,40.5,40.2,29.68,NW,315,9.4,-999.0,99,-99.99,,,0.00,Acu-Link.com,2013-03-04 16:25:00,
2013-03-04 11:41:00,41.4,41.1,29.67,WNW,292,11.4,-999.0,99,-99.99,,,0.00,Acu-Link.com,2013-03-04 16:41:00,
2013-03-04 11:56:00,40.6,40.4,29.67,WNW,292,10.3,-999.0,99,-99.99,,,0.00,Acu-Link.com,2013-03-04 16:56:00,
2013-03-04 12:11:00,40.6,40.4,29.67,SW,225,9.4,-999.0,99,-99.99,,,0.00,Acu-Link.com,2013-03-04 17:11:00,
2013-03-04 12:26:00,41.7,41.5,29.67,WNW,292,6.3,-999.0,99,-99.99,,,0.00,Acu-Link.com,2013-03-04 17:26:00,
2013-03-04 12:41:00,40.1,39.8,29.66,SSW,202,10.3,-999.0,99,-99.99,,,0.00,Acu-Link.com,2013-03-04 17:41:00,
2013-03-04 12:57:00,40.5,40.2,29.66,West,270,16.1,-999.0,99,-99.99,,,0.00,Acu-Link.com,2013-03-04 17:57:00,
2013-03-04 13:12:00,41.2,40.9,29.65,NNW,337,11.4,-999.0,99,-99.99,,,0.00,Acu-Link.com,2013-03-04 18:12:00,
2013-03-04 13:27:00,41.9,41.6,29.65,NW,315,15.4,-999.0,99,-99.99,,,0.00,Acu-Link.com,2013-03-04 18:27:00,
2013-03-04 13:42:00,41.9,41.6,29.65,WSW,247,19.0,-999.0,99,-99.99,,,0.00,Acu-Link.com,2013-03-04 18:42:00,
2013-03-04 13:57:00,41.9,41.6,29.65,NW,315,11.0,-999.0,99,-99.99,,,0.00,Acu-Link.com,2013-03-04 18:57:00,
2013-03-04 14:13:00,41.2,40.9,29.65,NW,315,15.4,-999.0,99,-99.99,,,0.00,Acu-Link.com,2013-03-04 19:13:00,
2013-03-04 14:28:00,39.7,39.5,29.66,WNW,292,10.3,-999.0,99,-99.99,,,0.00,Acu-Link.com,2013-03-04 19:28:00,
2013-03-04 14:43:00,39.6,39.3,29.65,WSW,247,10.3,-999.0,99,-99.99,,,0.00,Acu-Link.com,2013-03-04 19:43:00,
2013-03-04 14:58:00,40.1,39.8,29.66,West,270,10.3,-999.0,99,-99.99,,,0.00,Acu-Link.com,2013-03-04 19:58:00,
2013-03-04 15:13:00,40.6,40.4,29.65,SW,225,9.8,-999.0,99,-99.99,,,0.00,Acu-Link.com,2013-03-04 20:13:00,
2013-03-04 15:29:00,39.7,39.5,29.65,NW,315,13.4,-999.0,99,-99.99,,,0.00,Acu-Link.com,2013-03-04 20:29:00,
2013-03-04 15:44:00,40.1,39.8,29.66,NW,315,9.4,-999.0,99,-99.99,,,0.00,Acu-Link.com,2013-03-04 20:44:00,
2013-03-04 15:59:00,39.7,39.5,29.66,West,270,9.8,-999.0,99,-99.99,,,0.00,Acu-Link.com,2013-03-04 20:59:00,
2013-03-04 16:14:00,39.0,38.8,29.67,WNW,292,11.9,-999.0,99,-99.99,,,0.00,Acu-Link.com,2013-03-04 21:14:00,
2013-03-04 16:30:00,38.1,37.9,29.67,SSW,202,15.0,-999.0,99,-99.99,,,0.00,Acu-Link.com,2013-03-04 21:30:00,
2013-03-04 16:45:00,38.7,38.4,29.67,SW,225,14.5,-999.0,99,-99.99,,,0.00,Acu-Link.com,2013-03-04 21:45:00,
2013-03-04 17:00:00,37.2,37.0,29.68,West,270,7.8,-999.0,99,-99.99,,,0.00,Acu-Link.com,2013-03-04 22:00:00,
2013-03-04 17:15:00,36.1,35.9,29.68,West,270,13.0,-999.0,99,-99.99,,,0.00,Acu-Link.com,2013-03-04 22:15:00,
2013-03-04 17:30:00,35.8,35.5,29.69,NW,315,7.4,-999.0,99,-99.99,,,0.00,Acu-Link.com,2013-03-04 22:30:00,
2013-03-04 17:46:00,35.4,35.2,29.69,WNW,292,5.8,-999.0,99,-99.99,,,0.00,Acu-Link.com,2013-03-04 22:46:00,
2013-03-04 18:01:00,34.7,34.4,29.70,West,270,6.7,-999.0,99,-99.99,,,0.00,Acu-Link.com,2013-03-04 23:01:00,
2013-03-04 18:16:00,34.0,33.7,29.71,WNW,292,16.6,-999.0,99,-99.99,,,0.00,Acu-Link.com,2013-03-04 23:16:00,
2013-03-04 18:31:00,33.4,33.2,29.72,WSW,247,9.8,-999.0,99,-99.99,,,0.00,Acu-Link.com,2013-03-04 23:31:00,
2013-03-04 18:46:00,32.9,32.7,29.73,North,0,6.3,-999.0,99,-99.99,,,0.00,Acu-Link.com,2013-03-04 23:46:00,
2013-03-04 19:02:00,32.5,32.3,29.72,WNW,292,5.1,-999.0,99,-99.99,,,0.00,Acu-Link.com,2013-03-05 00:02:00,
2013-03-04 19:17:00,32.2,31.9,29.74,WNW,292,10.3,-999.0,99,-99.99,,,0.00,Acu-Link.com,2013-03-05 00:17:00,
2013-03-04 19:32:00,32.0,31.8,29.74,West,270,8.9,-999.0,99,-99.99,,,0.00,Acu-Link.com,2013-03-05 00:32:00,
2013-03-04 19:48:00,31.8,31.6,29.75,West,270,6.3,-999.0,99,-99.99,,,0.00,Acu-Link.com,2013-03-05 00:48:00,
2013-03-04 20:03:00,31.6,31.4,29.74,West,270,6.7,-999.0,99,-99.99,,,0.00,Acu-Link.com,2013-03-05 01:03:00,
2013-03-04 20:18:00,31.5,31.2,29.75,NNW,337,7.8,-999.0,99,-99.99,,,0.00,Acu-Link.com,2013-03-05 01:18:00,
2013-03-04 20:33:00,31.5,2.2,29.75,North,0,5.8,-999.0,28,-99.99,,,0.00,Acu-Link.com,2013-03-05 01:33:00,
2013-03-04 20:48:00,31.5,-28.3,29.76,WNW,292,10.3,-999.0,6,-99.99,,,0.00,Acu-Link.com,2013-03-05 01:48:00,
2013-03-04 21:04:00,31.5,31.0,29.75,NNW,337,4.3,-999.0,98,-99.99,,,0.00,Acu-Link.com,2013-03-05 02:04:00,
2013-03-04 21:19:00,31.5,31.0,29.75,NNW,337,10.3,-999.0,98,-99.99,,,0.00,Acu-Link.com,2013-03-05 02:19:00,
2013-03-04 21:34:00,31.5,31.0,29.75,SSW,202,8.9,-999.0,98,-99.99,,,0.00,Acu-Link.com,2013-03-05 02:34:00,
2013-03-04 21:49:00,31.5,31.0,29.76,WSW,247,4.7,-999.0,98,-99.99,,,0.00,Acu-Link.com,2013-03-05 02:49:00,
2013-03-04 22:04:00,31.6,31.1,29.77,West,270,8.3,-999.0,98,-99.99,,,0.00,Acu-Link.com,2013-03-05 03:04:00,
2013-03-04 22:20:00,31.5,31.0,29.77,NNW,337,5.1,-999.0,98,-99.99,,,0.00,Acu-Link.com,2013-03-05 03:20:00,
2013-03-04 22:35:00,31.5,31.0,29.77,West,270,7.4,-999.0,98,-99.99,,,0.00,Acu-Link.com,2013-03-05 03:35:00,
2013-03-04 22:50:00,31.3,30.8,29.77,NW,315,8.3,-999.0,98,-99.99,,,0.00,Acu-Link.com,2013-03-05 03:50:00,
2013-03-04 23:05:00,31.1,30.9,29.78,NW,315,6.7,-999.0,99,-99.99,,,0.00,Acu-Link.com,2013-03-05 04:05:00,
2013-03-04 23:21:00,30.9,30.7,29.78,North,0,8.9,-999.0,99,-99.99,,,0.00,Acu-Link.com,2013-03-05 04:21:00,
2013-03-04 23:36:00,30.7,30.5,29.78,North,0,9.4,-999.0,99,-99.99,,,0.00,Acu-Link.com,2013-03-05 04:36:00,
2013-03-04 23:51:00,30.9,30.7,29.78,NW,315,6.7,-999.0,99,-99.99,,,0.00,Acu-Link.com,2013-03-05 04:51:00,